Flight Track Log - Related Links

Times and Time Zones

All times are in EDT time to prevent confusion due to time zone crossing. See the CNK432 flight status page for this flight to view local times or setup timezone preferences in your user account.

Time Position Orientation Groundspeed Altitude Reporting Facility
EDT Latitude Longitude Course Direction KTS MPH feet Rate Location/Type
Sun 01:33:00 PM 58.4623 -122.0917 144° Southeast  Level FlightAware Approximate
Sun 01:34:00 PM 58.4012 -122.0078 144° Southeast  Level FlightAware Approximate
Sun 01:35:00 PM 58.3390 -121.9275 147° Southeast  Level FlightAware Approximate
Sun 01:36:00 PM 58.2762 -121.8487 147° Southeast  Level FlightAware Approximate
Sun 01:37:00 PM 58.2134 -121.7702 147° Southeast  Level FlightAware Approximate
Sun 01:38:00 PM 58.1505 -121.6920 147° Southeast  Level FlightAware Approximate
Sun 01:39:00 PM 58.0880 -121.6130 146° Southeast  Level FlightAware Approximate
Sun 01:40:00 PM 58.0258 -121.5330 146° Southeast  Level FlightAware Approximate
Sun 01:41:00 PM 57.9635 -121.4535 146° Southeast  Level FlightAware Approximate
Sun 01:42:00 PM 57.9012 -121.3742 146° Southeast  Level FlightAware Approximate
Sun 01:43:00 PM 57.8388 -121.2953 146° Southeast  Level FlightAware Approximate
Sun 01:44:00 PM 57.7764 -121.2166 146° Southeast  Level FlightAware Approximate
Sun 01:44:46 PM 58.0333 -121.6000 147° Southeast 300 345 25,100  Level Edmonton Center
Sun 01:45:00 PM 57.7138 -121.1385 146° Southeast  Level FlightAware Approximate
Sun 01:45:46 PM 57.9500 -121.5333 157° South 290 334 25,100  Level Edmonton Center
Sun 01:46:00 PM 57.6511 -121.0609 146° Southeast  Level FlightAware Approximate
Sun 01:46:46 PM 57.8833 -121.4333 141° Southeast 290 334 25,100  Level Edmonton Center
Sun 01:47:00 PM 57.5884 -120.9836 147° Southeast  Level FlightAware Approximate
Sun 01:47:46 PM 57.8333 -121.3500 138° Southeast 280 322 25,100  Level Edmonton Center
Sun 01:48:00 PM 57.5256 -120.9066 147° Southeast  Level FlightAware Approximate
Sun 01:48:46 PM 57.7667 -121.2833 152° Southeast 290 334 25,100  Level Edmonton Center
Sun 01:49:00 PM 57.4627 -120.8298 147° Southeast  Level FlightAware Approximate
Sun 01:49:46 PM 57.6833 -121.1833 147° Southeast 280 322 25,100  Level Edmonton Center
Sun 01:50:00 PM 57.3998 -120.7533 147° Southeast  Level FlightAware Approximate
Sun 01:50:46 PM 57.6333 -121.1167 144° Southeast 280 322 25,100  Level Edmonton Center
Sun 01:51:46 PM 57.5500 -121.0167 147° Southeast 290 334 25,100  Level Edmonton Center
Sun 01:52:46 PM 57.5000 -120.9667 152° Southeast 290 334 25,100  Level Edmonton Center
Sun 01:53:46 PM 57.4167 -120.8667 147° Southeast 290 334 25,100  Level Edmonton Center
Sun 01:54:46 PM 57.3667 -120.7667 133° Southeast 290 334 25,100  Level Edmonton Center
Sun 01:55:46 PM 57.2833 -120.7000 157° South 290 334 25,100  Level Edmonton Center
Sun 01:57:00 PM 57.2074 -120.6015 145° Southeast  Level FlightAware Approximate
Sun 01:57:46 PM 57.1500 -120.5167 145° Southeast 290 334 25,100  Level Edmonton Center
Sun 01:58:46 PM 57.0833 -120.4167 141° Southeast 290 334 25,100  Level Edmonton Center
Sun 01:59:46 PM 57.0167 -120.3667 158° South 290 334 25,100  Level Edmonton Center
Sun 02:00:46 PM 56.9500 -120.2667 141° Southeast 290 334 25,100  Level Edmonton Center
Sun 02:01:46 PM 56.8667 -120.1833 151° Southeast 290 334 25,100  Level Edmonton Center
Sun 02:02:46 PM 56.8000 -120.1167 151° Southeast 290 334 25,100 -50 Level Edmonton Center
Sun 02:03:46 PM 56.7333 -120.0167 141° Southeast 290 334 25,000  Descending Edmonton Center
Sun 02:04:46 PM 56.6667 -119.9667 158° South 290 334 25,100 50 Climbing Edmonton Center
Sun 02:05:46 PM 56.6000 -119.8667 140° Southeast 280 322 25,100  Level Edmonton Center
Sun 02:06:46 PM 56.5333 -119.8167 158° South 280 322 25,100  Level Edmonton Center
Sun 02:07:46 PM 56.4667 -119.7333 145° Southeast 290 334 25,100  Level Edmonton Center
Sun 02:08:46 PM 56.4000 -119.6333 140° Southeast 290 334 25,100  Level Edmonton Center
Sun 02:09:46 PM 56.3167 -119.5500 151° Southeast 290 334 25,100  Level Edmonton Center
Sun 02:10:46 PM 56.2667 -119.4833 143° Southeast 290 334 25,100  Level Edmonton Center
Sun 02:11:46 PM 56.1833 -119.4000 151° Southeast 290 334 25,100  Level Edmonton Center
Sun 02:12:46 PM 56.1333 -119.3167 137° Southeast 290 334 25,100  Level Edmonton Center
Sun 02:13:46 PM 56.0500 -119.2500 156° South 290 334 25,100  Level Edmonton Center
Sun 02:14:46 PM 55.9667 -119.1667 151° Southeast 290 334 25,100  Level Edmonton Center
Sun 02:15:46 PM 55.9167 -119.0833 137° Southeast 290 334 25,100 -50 Level Edmonton Center
Sun 02:16:46 PM 55.8500 -119.0167 151° Southeast 290 334 25,000 -50 Descending Edmonton Center
Sun 02:17:46 PM 55.7667 -118.9333 151° Southeast 290 334 25,000 50 Level Edmonton Center
Sun 02:18:46 PM 55.7000 -118.8667 151° Southeast 290 334 25,100 50 Climbing Edmonton Center
Sun 02:19:46 PM 55.6333 -118.7833 145° Southeast 300 345 25,100  Level Edmonton Center
Sun 02:20:46 PM 55.5667 -118.7000 145° Southeast 300 345 25,100  Level Edmonton Center
Sun 02:21:46 PM 55.4833 -118.6167 150° Southeast 300 345 25,100  Level Edmonton Center
Sun 02:23:00 PM 55.4039 -118.5248 147° Southeast  Level FlightAware Approximate
Sun 02:23:46 PM 55.3500 -118.4667 147° Southeast 300 345 25,100  Level Edmonton Center
Sun 02:24:46 PM 55.2667 -118.3833 150° Southeast 300 345 25,100  Level Edmonton Center
Sun 02:25:46 PM 55.1833 -118.3333 161° South 300 345 25,100  Level Edmonton Center
Sun 02:26:46 PM 55.1333 -118.2500 136° Southeast 310 357 25,100  Level Edmonton Center
Sun 02:27:46 PM 55.0500 -118.1500 145° Southeast 310 357 25,100 -50 Level Edmonton Center
Sun 02:28:46 PM 54.9833 -118.0667 144° Southeast 300 345 25,000 -50 Descending Edmonton Center
Sun 02:29:46 PM 54.9000 -117.9833 150° Southeast 300 345 25,000 50 Level Edmonton Center
Sun 02:30:46 PM 54.8333 -117.9333 157° South 300 345 25,100 50 Climbing Edmonton Center
Sun 02:31:46 PM 54.7667 -117.8500 144° Southeast 300 345 25,100  Level Edmonton Center
Sun 02:32:46 PM 54.7000 -117.7667 144° Southeast 300 345 25,100  Level Edmonton Center
Sun 02:33:46 PM 54.6333 -117.6833 144° Southeast 300 345 25,100  Level Edmonton Center
Sun 02:34:46 PM 54.5500 -117.6333 161° South 310 357 25,100  Level Edmonton Center
Sun 02:35:46 PM 54.4667 -117.5500 150° Southeast 310 357 25,100  Level Edmonton Center
Sun 02:36:46 PM 54.4000 -117.4667 144° Southeast 300 345 25,100  Level Edmonton Center
Sun 02:37:46 PM 54.3333 -117.3833 144° Southeast 310 357 25,100  Level Edmonton Center
Sun 02:38:46 PM 54.2500 -117.3333 161° South 300 345 25,100  Level Edmonton Center
Sun 02:39:46 PM 54.1833 -117.2500 144° Southeast 300 345 25,100  Level Edmonton Center
Sun 02:40:46 PM 54.1000 -117.1667 150° Southeast 310 357 25,100  Level Edmonton Center
Sun 02:41:46 PM 54.0333 -117.0833 144° Southeast 310 357 25,100  Level Edmonton Center
Sun 02:42:46 PM 53.9667 -117.0000 144° Southeast 310 357 25,100  Level Edmonton Center
Sun 02:43:46 PM 53.8833 -116.9500 161° South 300 345 25,100  Level Edmonton Center
Sun 02:44:46 PM 53.8000 -116.8667 149° Southeast 310 357 25,100  Level Edmonton Center
Sun 02:45:46 PM 53.7333 -116.8000 149° Southeast 310 357 25,100  Level Edmonton Center
Sun 02:46:46 PM 53.6667 -116.7500 156° South 300 345 25,100  Level Edmonton Center
Sun 02:47:46 PM 53.5833 -116.6667 149° Southeast 300 345 25,100  Level Edmonton Center
Sun 02:48:46 PM 53.5167 -116.5833 143° Southeast 300 345 25,100  Level Edmonton Center
Sun 02:49:46 PM 53.4500 -116.5167 149° Southeast 300 345 25,100  Level Edmonton Center
Sun 02:50:46 PM 53.3667 -116.4333 149° Southeast 300 345 25,100  Level Edmonton Center
Sun 02:51:46 PM 53.2833 -116.3833 160° South 300 345 25,100  Level Edmonton Center
Sun 02:52:46 PM 53.2167 -116.3000 143° Southeast 300 345 25,100  Level Edmonton Center
Sun 02:53:46 PM 53.1500 -116.2333 149° Southeast 300 345 25,100  Level Edmonton Center
Sun 02:54:46 PM 53.0667 -116.1667 154° Southeast 310 357 25,100  Level Edmonton Center
Sun 02:55:46 PM 53.0000 -116.1000 149° Southeast 300 345 25,100  Level Edmonton Center
Sun 02:56:46 PM 52.9333 -116.0167 143° Southeast 310 357 25,100  Level Edmonton Center
Sun 02:57:46 PM 52.8500 -115.9500 154° Southeast 300 345 25,100  Level Edmonton Center
Sun 02:58:46 PM 52.7667 -115.9000 160° South 300 345 25,100  Level Edmonton Center
Sun 02:59:46 PM 52.7000 -115.8167 143° Southeast 300 345 25,100  Level Edmonton Center
Sun 03:00:46 PM 52.6167 -115.7500 154° Southeast 310 357 25,100  Level Edmonton Center
Sun 03:01:46 PM 52.5500 -115.6667 143° Southeast 310 357 25,100  Level Edmonton Center
Sun 03:02:46 PM 52.4833 -115.6000 149° Southeast 300 345 25,100  Level Edmonton Center
Sun 03:03:46 PM 52.4000 -115.5500 160° South 310 357 25,100  Level Edmonton Center
Sun 03:04:46 PM 52.3167 -115.4667 149° Southeast 310 357 25,100  Level Edmonton Center
Sun 03:05:46 PM 52.2500 -115.4000 149° Southeast 300 345 25,100  Level Edmonton Center
Sun 03:06:46 PM 52.1833 -115.3167 143° Southeast 300 345 25,100  Level Edmonton Center
Sun 03:07:46 PM 52.1000 -115.2500 154° Southeast 300 345 25,100 -300 Level Edmonton Center
Sun 03:08:46 PM 52.0333 -115.2000 155° Southeast 300 345 24,500 -1,100 Descending Edmonton Center
Sun 03:09:46 PM 51.9667 -115.1333 148° Southeast 300 345 22,900 -1,600 Descending Edmonton Center
Sun 03:10:46 PM 51.8833 -115.0500 148° Southeast 300 345 21,300 -1,800 Descending Edmonton Center
Sun 03:11:46 PM 51.8000 -115.0167 166° South 290 334 19,300 -1,950 Descending Edmonton Center
Sun 03:12:46 PM 51.7333 -114.9500 148° Southeast 290 334 17,400 -1,900 Descending Edmonton Center
Sun 03:13:46 PM 51.6667 -114.8667 142° Southeast 290 334 15,500 -1,800 Descending Edmonton Center
Sun 03:14:46 PM 51.6000 -114.8333 163° South 290 334 13,800 -1,750 Descending Edmonton Center
Sun 03:15:46 PM 51.5333 -114.7333 137° Southeast 290 334 12,000 -1,650 Descending Edmonton Center
Sun 03:16:46 PM 51.5000 -114.6333 118° Southeast 260 299 10,500 -1,250 Descending Edmonton Center
Sun 03:17:46 PM 51.4500 -114.5500 134° Southeast 260 299 9,500 -650 Descending Edmonton Center
Sun 03:18:46 PM 51.3833 -114.4833 148° Southeast 240 276 9,200 -250 Descending Edmonton Center
Sun 03:19:46 PM 51.3167 -114.4333 155° Southeast 250 288 9,000 -600 Descending Edmonton Center
Sun 03:20:46 PM 51.2667 -114.3667 140° Southeast 250 288 8,000 -1,200 Descending Edmonton Center
Sun 03:21:46 PM 51.2000 -114.3333 163° South 240 276 6,600 -1,000 Descending Edmonton Center
Sun 03:22:46 PM 51.1667 -114.2667 129° Southeast 200 230 6,000 -600 Descending Edmonton Center
Sun 03:23:46 PM 51.1333 -114.1833 122° Southeast 170 196 5,400 -650 Descending Edmonton Center
Sun 03:24:46 PM 51.1333 -114.1167 90° East 150 173 4,700 -750 Descending Edmonton Center
Sun 03:25:46 PM 51.1000 -114.0833 148° Southeast 120 138 3,900 -550 Descending Edmonton Center
Sun 03:26:46 PM 51.0833 -114.0333 118° Southeast 100 115 3,600 -300 Descending Edmonton Center

Login

Don't have an account? Register now (free) for customized features, flight alerts, and more!